sensor_id;sensor_type;location;lat;lon;timestamp;pressure;altitude;pressure_sealevel;temperature;humidity
12969;BME280;6549;53.128;8.182;2024-01-15T00:02:44;99395.81;;;1.25;100.00
12969;BME280;6549;53.128;8.182;2024-01-15T00:05:45;99378.16;;;1.31;100.00
12969;BME280;6549;53.128;8.182;2024-01-15T00:08:45;99376.56;;;1.30;100.00
12969;BME280;6549;53.128;8.182;2024-01-15T00:11:45;99382.72;;;1.27;100.00
12969;BME280;6549;53.128;8.182;2024-01-15T00:14:46;99388.31;;;1.38;100.00
12969;BME280;6549;53.128;8.182;2024-01-15T00:17:46;99376.84;;;1.45;100.00
12969;BME280;6549;53.128;8.182;2024-01-15T00:20:47;99372.38;;;1.33;100.00
12969;BME280;6549;53.128;8.182;2024-01-15T00:23:47;99383.41;;;1.24;100.00
12969;BME280;6549;53.128;8.182;2024-01-15T00:26:47;99370.88;;;1.16;100.00
12969;BME280;6549;53.128;8.182;2024-01-15T00:29:48;99371.59;;;1.13;100.00
12969;BME280;6549;53.128;8.182;2024-01-15T00:32:48;99374.88;;;1.22;100.00
12969;BME280;6549;53.128;8.182;2024-01-15T00:35:48;99368.69;;;1.22;100.00
12969;BME280;6549;53.128;8.182;2024-01-15T00:38:49;99364.69;;;1.16;100.00
12969;BME280;6549;53.128;8.182;2024-01-15T00:41:49;99354.50;;;1.09;100.00
12969;BME280;6549;53.128;8.182;2024-01-15T00:44:49;99358.41;;;1.12;100.00
12969;BME280;6549;53.128;8.182;2024-01-15T00:47:50;99354.13;;;1.11;100.00
12969;BME280;6549;53.128;8.182;2024-01-15T00:50:50;99364.03;;;1.03;100.00
12969;BME280;6549;53.128;8.182;2024-01-15T00:53:51;99359.28;;;0.97;100.00
12969;BME280;6549;53.128;8.182;2024-01-15T00:56:51;99349.66;;;0.99;100.00
12969;BME280;6549;53.128;8.182;2024-01-15T00:59:52;99346.63;;;1.01;100.00
12969;BME280;6549;53.128;8.182;2024-01-15T01:02:52;99335.06;;;1.04;100.00
12969;BME280;6549;53.128;8.182;2024-01-15T01:05:53;99343.97;;;1.04;100.00
12969;BME280;6549;53.128;8.182;2024-01-15T01:08:53;99338.69;;;1.11;100.00
12969;BME280;6549;53.128;8.182;2024-01-15T01:11:53;99339.00;;;1.06;100.00
12969;BME280;6549;53.128;8.182;2024-01-15T01:14:54;99325.31;;;1.18;100.00
12969;BME280;6549;53.128;8.182;2024-01-15T01:17:54;99329.66;;;1.04;100.00
12969;BME280;6549;53.128;8.182;2024-01-15T01:20:54;99323.34;;;0.96;100.00
12969;BME280;6549;53.128;8.182;2024-01-15T01:23:55;99321.75;;;0.95;100.00
12969;BME280;6549;53.128;8.182;2024-01-15T01:26:55;99312.22;;;1.01;100.00
12969;BME280;6549;53.128;8.182;2024-01-15T01:29:55;99306.38;;;0.99;100.00
12969;BME280;6549;53.128;8.182;2024-01-15T01:32:56;99305.66;;;1.02;100.00
12969;BME280;6549;53.128;8.182;2024-01-15T01:35:56;99307.00;;;1.12;100.00
12969;BME280;6549;53.128;8.182;2024-01-15T01:38:56;99304.38;;;1.15;100.00
12969;BME280;6549;53.128;8.182;2024-01-15T01:41:57;99304.25;;;1.08;100.00
12969;BME280;6549;53.128;8.182;2024-01-15T01:44:57;99300.03;;;1.11;100.00
12969;BME280;6549;53.128;8.182;2024-01-15T01:47:57;99307.94;;;1.19;100.00
12969;BME280;6549;53.128;8.182;2024-01-15T01:51:00;99300.38;;;1.28;100.00
12969;BME280;6549;53.128;8.182;2024-01-15T01:54:02;99307.84;;;1.16;100.00
12969;BME280;6549;53.128;8.182;2024-01-15T01:57:03;99308.81;;;1.23;100.00
12969;BME280;6549;53.128;8.182;2024-01-15T02:00:05;99304.66;;;1.29;100.00
12969;BME280;6549;53.128;8.182;2024-01-15T02:03:07;99302.66;;;1.26;100.00
12969;BME280;6549;53.128;8.182;2024-01-15T02:06:08;99298.03;;;1.27;100.00
12969;BME280;6549;53.128;8.182;2024-01-15T02:09:08;99292.25;;;1.28;100.00
12969;BME280;6549;53.128;8.182;2024-01-15T02:12:09;99292.69;;;1.11;100.00
12969;BME280;6549;53.128;8.182;2024-01-15T02:15:10;99297.25;;;1.07;100.00
12969;BME280;6549;53.128;8.182;2024-01-15T02:18:10;99292.22;;;1.06;100.00
12969;BME280;6549;53.128;8.182;2024-01-15T02:21:11;99295.72;;;1.06;100.00
12969;BME280;6549;53.128;8.182;2024-01-15T02:24:12;99296.56;;;1.10;100.00
12969;BME280;6549;53.128;8.182;2024-01-15T02:27:12;99300.53;;;1.16;100.00
12969;BME280;6549;53.128;8.182;2024-01-15T02:30:13;99302.63;;;1.04;100.00
12969;BME280;6549;53.128;8.182;2024-01-15T02:33:13;99306.38;;;0.99;100.00
12969;BME280;6549;53.128;8.182;2024-01-15T02:36:15;99328.88;;;1.03;100.00
12969;BME280;6549;53.128;8.182;2024-01-15T02:39:16;99334.94;;;0.97;100.00
12969;BME280;6549;53.128;8.182;2024-01-15T02:42:16;99334.84;;;1.12;100.00
12969;BME280;6549;53.128;8.182;2024-01-15T02:45:17;99333.16;;;1.04;100.00
12969;BME280;6549;53.128;8.182;2024-01-15T02:48:17;99313.50;;;1.07;100.00
12969;BME280;6549;53.128;8.182;2024-01-15T02:51:17;99329.31;;;1.05;100.00
12969;BME280;6549;53.128;8.182;2024-01-15T02:54:18;99323.97;;;1.09;100.00
12969;BME280;6549;53.128;8.182;2024-01-15T02:57:18;99320.53;;;1.12;100.00
12969;BME280;6549;53.128;8.182;2024-01-15T03:00:18;99334.56;;;1.17;100.00
12969;BME280;6549;53.128;8.182;2024-01-15T03:03:19;99335.13;;;1.07;100.00
12969;BME280;6549;53.128;8.182;2024-01-15T03:06:19;99315.84;;;1.09;100.00
12969;BME280;6549;53.128;8.182;2024-01-15T03:09:19;99322.13;;;1.13;100.00
12969;BME280;6549;53.128;8.182;2024-01-15T03:12:20;99329.88;;;1.14;100.00
12969;BME280;6549;53.128;8.182;2024-01-15T03:15:20;99318.69;;;1.16;100.00
12969;BME280;6549;53.128;8.182;2024-01-15T03:18:20;99312.19;;;1.20;100.00
12969;BME280;6549;53.128;8.182;2024-01-15T03:21:21;99302.75;;;1.11;100.00
12969;BME280;6549;53.128;8.182;2024-01-15T03:24:21;99307.44;;;1.14;100.00
12969;BME280;6549;53.128;8.182;2024-01-15T03:27:21;99312.88;;;1.14;100.00
12969;BME280;6549;53.128;8.182;2024-01-15T03:30:22;99314.06;;;1.16;100.00
12969;BME280;6549;53.128;8.182;2024-01-15T03:33:22;99307.16;;;1.19;100.00
12969;BME280;6549;53.128;8.182;2024-01-15T03:36:22;99304.09;;;1.20;100.00
12969;BME280;6549;53.128;8.182;2024-01-15T03:39:23;99300.91;;;1.15;100.00
12969;BME280;6549;53.128;8.182;2024-01-15T03:42:23;99298.66;;;1.20;100.00
12969;BME280;6549;53.128;8.182;2024-01-15T03:45:23;99303.84;;;1.29;100.00
12969;BME280;6549;53.128;8.182;2024-01-15T03:48:24;99296.53;;;1.29;100.00
12969;BME280;6549;53.128;8.182;2024-01-15T03:51:24;99297.88;;;1.20;100.00
12969;BME280;6549;53.128;8.182;2024-01-15T03:54:24;99296.19;;;1.31;100.00
12969;BME280;6549;53.128;8.182;2024-01-15T03:57:25;99299.97;;;1.26;100.00
12969;BME280;6549;53.128;8.182;2024-01-15T04:00:25;99301.94;;;1.29;100.00
12969;BME280;6549;53.128;8.182;2024-01-15T04:03:26;99307.34;;;1.29;100.00
12969;BME280;6549;53.128;8.182;2024-01-15T04:06:26;99324.88;;;1.35;100.00
12969;BME280;6549;53.128;8.182;2024-01-15T04:09:26;99337.97;;;1.33;100.00
12969;BME280;6549;53.128;8.182;2024-01-15T04:12:27;99351.66;;;1.41;100.00
12969;BME280;6549;53.128;8.182;2024-01-15T04:15:27;99354.19;;;1.33;100.00
12969;BME280;6549;53.128;8.182;2024-01-15T04:18:27;99362.31;;;1.33;100.00
12969;BME280;6549;53.128;8.182;2024-01-15T04:21:28;99358.75;;;1.29;100.00
12969;BME280;6549;53.128;8.182;2024-01-15T04:24:28;99338.69;;;1.30;100.00
12969;BME280;6549;53.128;8.182;2024-01-15T04:27:30;99325.94;;;1.31;100.00
12969;BME280;6549;53.128;8.182;2024-01-15T04:30:30;99329.44;;;1.31;100.00
12969;BME280;6549;53.128;8.182;2024-01-15T04:33:30;99320.88;;;1.29;100.00
12969;BME280;6549;53.128;8.182;2024-01-15T04:36:31;99314.69;;;1.29;100.00
12969;BME280;6549;53.128;8.182;2024-01-15T04:39:31;99310.13;;;1.33;100.00
12969;BME280;6549;53.128;8.182;2024-01-15T04:42:31;99302.44;;;1.35;100.00
12969;BME280;6549;53.128;8.182;2024-01-15T04:45:31;99309.03;;;1.38;100.00
12969;BME280;6549;53.128;8.182;2024-01-15T04:48:32;99314.78;;;1.32;100.00
12969;BME280;6549;53.128;8.182;2024-01-15T04:51:34;99324.03;;;1.31;100.00
12969;BME280;6549;53.128;8.182;2024-01-15T04:54:35;99323.25;;;1.31;100.00
12969;BME280;6549;53.128;8.182;2024-01-15T04:57:35;99324.09;;;1.35;100.00
12969;BME280;6549;53.128;8.182;2024-01-15T05:00:35;99311.19;;;1.28;100.00
12969;BME280;6549;53.128;8.182;2024-01-15T05:03:35;99306.66;;;1.32;100.00
12969;BME280;6549;53.128;8.182;2024-01-15T05:06:36;99302.38;;;1.31;100.00
12969;BME280;6549;53.128;8.182;2024-01-15T05:09:36;99291.84;;;1.26;100.00
12969;BME280;6549;53.128;8.182;2024-01-15T05:12:36;99293.69;;;1.22;100.00
12969;BME280;6549;53.128;8.182;2024-01-15T05:15:37;99312.41;;;1.31;100.00
12969;BME280;6549;53.128;8.182;2024-01-15T05:18:37;99314.63;;;1.25;100.00
12969;BME280;6549;53.128;8.182;2024-01-15T05:21:37;99308.91;;;1.30;100.00
12969;BME280;6549;53.128;8.182;2024-01-15T05:24:38;99302.94;;;1.21;100.00
12969;BME280;6549;53.128;8.182;2024-01-15T05:27:38;99306.09;;;1.23;100.00
12969;BME280;6549;53.128;8.182;2024-01-15T05:30:38;99302.53;;;1.19;100.00
12969;BME280;6549;53.128;8.182;2024-01-15T05:33:39;99300.53;;;1.16;100.00
12969;BME280;6549;53.128;8.182;2024-01-15T05:36:39;99302.03;;;1.14;100.00
12969;BME280;6549;53.128;8.182;2024-01-15T05:39:39;99301.59;;;1.31;100.00
12969;BME280;6549;53.128;8.182;2024-01-15T05:42:41;99293.03;;;1.29;100.00
12969;BME280;6549;53.128;8.182;2024-01-15T05:45:43;99297.53;;;1.21;100.00
12969;BME280;6549;53.128;8.182;2024-01-15T05:48:44;99302.16;;;1.21;100.00
12969;BME280;6549;53.128;8.182;2024-01-15T05:51:44;99305.53;;;1.14;100.00
12969;BME280;6549;53.128;8.182;2024-01-15T05:54:45;99304.25;;;1.08;100.00
12969;BME280;6549;53.128;8.182;2024-01-15T05:57:45;99313.66;;;1.14;100.00
12969;BME280;6549;53.128;8.182;2024-01-15T06:00:46;99308.59;;;1.13;100.00
12969;BME280;6549;53.128;8.182;2024-01-15T06:03:46;99310.50;;;1.12;100.00
12969;BME280;6549;53.128;8.182;2024-01-15T06:06:46;99314.00;;;1.13;100.00
12969;BME280;6549;53.128;8.182;2024-01-15T06:09:47;99305.31;;;1.04;100.00
12969;BME280;6549;53.128;8.182;2024-01-15T06:12:47;99289.88;;;0.85;100.00
12969;BME280;6549;53.128;8.182;2024-01-15T06:15:47;99277.63;;;0.91;100.00
12969;BME280;6549;53.128;8.182;2024-01-15T06:18:48;99283.19;;;0.98;100.00
12969;BME280;6549;53.128;8.182;2024-01-15T06:21:48;99280.91;;;1.00;100.00
12969;BME280;6549;53.128;8.182;2024-01-15T06:24:48;99273.63;;;1.04;100.00
12969;BME280;6549;53.128;8.182;2024-01-15T06:27:48;99280.97;;;1.04;100.00
12969;BME280;6549;53.128;8.182;2024-01-15T06:30:49;99278.94;;;0.97;100.00
12969;BME280;6549;53.128;8.182;2024-01-15T06:33:49;99289.22;;;1.11;100.00
12969;BME280;6549;53.128;8.182;2024-01-15T06:36:49;99286.88;;;1.09;100.00
12969;BME280;6549;53.128;8.182;2024-01-15T06:39:50;99284.91;;;1.06;100.00
12969;BME280;6549;53.128;8.182;2024-01-15T06:42:50;99289.31;;;1.14;100.00
12969;BME280;6549;53.128;8.182;2024-01-15T06:45:50;99292.91;;;1.22;100.00
12969;BME280;6549;53.128;8.182;2024-01-15T06:48:51;99292.06;;;1.18;100.00
12969;BME280;6549;53.128;8.182;2024-01-15T06:51:51;99304.53;;;1.22;100.00
12969;BME280;6549;53.128;8.182;2024-01-15T06:54:52;99303.38;;;1.23;100.00
12969;BME280;6549;53.128;8.182;2024-01-15T06:57:52;99310.06;;;1.29;100.00
12969;BME280;6549;53.128;8.182;2024-01-15T07:00:53;99306.09;;;1.23;100.00
12969;BME280;6549;53.128;8.182;2024-01-15T07:03:53;99304.22;;;1.27;100.00
12969;BME280;6549;53.128;8.182;2024-01-15T07:06:53;99305.16;;;1.35;100.00
12969;BME280;6549;53.128;8.182;2024-01-15T07:09:54;99307.78;;;1.31;100.00
12969;BME280;6549;53.128;8.182;2024-01-15T07:12:54;99305.94;;;1.35;100.00
12969;BME280;6549;53.128;8.182;2024-01-15T07:15:54;99304.59;;;1.26;100.00
12969;BME280;6549;53.128;8.182;2024-01-15T07:18:54;99312.75;;;1.29;100.00
12969;BME280;6549;53.128;8.182;2024-01-15T07:21:55;99309.59;;;1.24;100.00
12969;BME280;6549;53.128;8.182;2024-01-15T07:24:55;99319.03;;;1.33;100.00
12969;BME280;6549;53.128;8.182;2024-01-15T07:27:56;99325.59;;;1.32;100.00
12969;BME280;6549;53.128;8.182;2024-01-15T07:30:56;99326.22;;;1.26;100.00
12969;BME280;6549;53.128;8.182;2024-01-15T07:33:57;99320.75;;;1.22;100.00
12969;BME280;6549;53.128;8.182;2024-01-15T07:36:57;99332.50;;;1.11;100.00
12969;BME280;6549;53.128;8.182;2024-01-15T07:39:58;99316.69;;;1.13;100.00
12969;BME280;6549;53.128;8.182;2024-01-15T07:42:58;99326.31;;;1.10;100.00
12969;BME280;6549;53.128;8.182;2024-01-15T07:45:58;99336.31;;;1.06;100.00
12969;BME280;6549;53.128;8.182;2024-01-15T07:48:59;99337.00;;;1.03;100.00
12969;BME280;6549;53.128;8.182;2024-01-15T07:51:59;99342.13;;;1.08;100.00
12969;BME280;6549;53.128;8.182;2024-01-15T07:54:59;99327.75;;;1.04;100.00
12969;BME280;6549;53.128;8.182;2024-01-15T07:58:00;99330.31;;;0.97;100.00
12969;BME280;6549;53.128;8.182;2024-01-15T08:01:01;99331.22;;;1.05;100.00
12969;BME280;6549;53.128;8.182;2024-01-15T08:04:01;99325.94;;;1.12;100.00
12969;BME280;6549;53.128;8.182;2024-01-15T08:07:02;99331.75;;;1.10;100.00
12969;BME280;6549;53.128;8.182;2024-01-15T08:10:03;99330.09;;;1.06;100.00
12969;BME280;6549;53.128;8.182;2024-01-15T08:13:03;99327.47;;;1.09;100.00
12969;BME280;6549;53.128;8.182;2024-01-15T08:16:04;99331.22;;;1.05;100.00
12969;BME280;6549;53.128;8.182;2024-01-15T08:19:04;99338.34;;;1.13;100.00
12969;BME280;6549;53.128;8.182;2024-01-15T08:22:05;99339.13;;;1.13;100.00
12969;BME280;6549;53.128;8.182;2024-01-15T08:25:06;99333.16;;;1.23;100.00
12969;BME280;6549;53.128;8.182;2024-01-15T08:28:06;99342.13;;;1.27;100.00
12969;BME280;6549;53.128;8.182;2024-01-15T08:31:08;99338.19;;;1.25;100.00
12969;BME280;6549;53.128;8.182;2024-01-15T08:34:09;99342.97;;;1.31;100.00
12969;BME280;6549;53.128;8.182;2024-01-15T08:37:09;99343.66;;;1.28;100.00
12969;BME280;6549;53.128;8.182;2024-01-15T08:40:10;99339.25;;;1.20;100.00
12969;BME280;6549;53.128;8.182;2024-01-15T08:43:10;99339.97;;;1.17;100.00
12969;BME280;6549;53.128;8.182;2024-01-15T08:46:11;99343.47;;;1.18;100.00
12969;BME280;6549;53.128;8.182;2024-01-15T08:49:11;99337.72;;;1.19;100.00
12969;BME280;6549;53.128;8.182;2024-01-15T08:52:12;99335.19;;;1.11;100.00
12969;BME280;6549;53.128;8.182;2024-01-15T08:55:12;99336.78;;;1.12;100.00
12969;BME280;6549;53.128;8.182;2024-01-15T08:58:13;99333.78;;;1.17;100.00
12969;BME280;6549;53.128;8.182;2024-01-15T09:01:14;99333.84;;;1.20;100.00
12969;BME280;6549;53.128;8.182;2024-01-15T09:04:14;99338.97;;;1.25;100.00
12969;BME280;6549;53.128;8.182;2024-01-15T09:07:14;99337.56;;;1.31;100.00
12969;BME280;6549;53.128;8.182;2024-01-15T09:10:15;99349.88;;;1.29;100.00
12969;BME280;6549;53.128;8.182;2024-01-15T09:13:15;99353.28;;;1.26;100.00
12969;BME280;6549;53.128;8.182;2024-01-15T09:16:16;99360.78;;;1.32;100.00
12969;BME280;6549;53.128;8.182;2024-01-15T09:19:17;99350.53;;;1.22;100.00
12969;BME280;6549;53.128;8.182;2024-01-15T09:22:17;99353.16;;;1.00;100.00
12969;BME280;6549;53.128;8.182;2024-01-15T09:25:20;99348.53;;;1.00;100.00
12969;BME280;6549;53.128;8.182;2024-01-15T09:28:20;99337.13;;;0.91;100.00
12969;BME280;6549;53.128;8.182;2024-01-15T09:31:21;99343.53;;;1.02;100.00
12969;BME280;6549;53.128;8.182;2024-01-15T09:34:21;99338.91;;;1.03;100.00
12969;BME280;6549;53.128;8.182;2024-01-15T09:37:22;99339.19;;;0.98;100.00
12969;BME280;6549;53.128;8.182;2024-01-15T09:40:23;99342.53;;;0.91;100.00
12969;BME280;6549;53.128;8.182;2024-01-15T09:43:26;99345.44;;;0.82;100.00
12969;BME280;6549;53.128;8.182;2024-01-15T09:46:26;99345.75;;;0.97;100.00
12969;BME280;6549;53.128;8.182;2024-01-15T09:49:27;99352.88;;;1.05;100.00
12969;BME280;6549;53.128;8.182;2024-01-15T09:52:27;99362.06;;;1.19;100.00
12969;BME280;6549;53.128;8.182;2024-01-15T09:55:28;99352.00;;;1.20;100.00
12969;BME280;6549;53.128;8.182;2024-01-15T09:58:29;99363.88;;;1.15;100.00
12969;BME280;6549;53.128;8.182;2024-01-15T10:01:32;99371.59;;;1.13;100.00
12969;BME280;6549;53.128;8.182;2024-01-15T10:04:32;99371.03;;;1.04;100.00
12969;BME280;6549;53.128;8.182;2024-01-15T10:07:35;99363.19;;;1.18;100.00
12969;BME280;6549;53.128;8.182;2024-01-15T10:10:36;99364.69;;;1.16;100.00
12969;BME280;6549;53.128;8.182;2024-01-15T10:13:38;99362.34;;;1.14;100.00
12969;BME280;6549;53.128;8.182;2024-01-15T10:19:48;99356.16;;;1.14;100.00
12969;BME280;6549;53.128;8.182;2024-01-15T10:22:50;99349.75;;;1.22;100.00
12969;BME280;6549;53.128;8.182;2024-01-15T10:25:50;99346.69;;;1.23;100.00
12969;BME280;6549;53.128;8.182;2024-01-15T10:28:51;99356.28;;;1.21;100.00
12969;BME280;6549;53.128;8.182;2024-01-15T10:31:54;99352.50;;;1.25;100.00
12969;BME280;6549;53.128;8.182;2024-01-15T10:34:55;99353.34;;;1.29;100.00
12969;BME280;6549;53.128;8.182;2024-01-15T10:37:55;99355.38;;;1.32;100.00
12969;BME280;6549;53.128;8.182;2024-01-15T10:40:56;99356.84;;;1.30;100.00
12969;BME280;6549;53.128;8.182;2024-01-15T10:43:57;99355.50;;;1.20;100.00
12969;BME280;6549;53.128;8.182;2024-01-15T10:46:57;99356.94;;;1.14;100.00
12969;BME280;6549;53.128;8.182;2024-01-15T10:49:58;99356.56;;;1.16;100.00
12969;BME280;6549;53.128;8.182;2024-01-15T10:52:59;99350.75;;;1.14;100.00
12969;BME280;6549;53.128;8.182;2024-01-15T10:55:59;99352.66;;;0.94;100.00
12969;BME280;6549;53.128;8.182;2024-01-15T10:59:01;99352.22;;;1.11;100.00
12969;BME280;6549;53.128;8.182;2024-01-15T11:02:02;99342.97;;;1.12;100.00
12969;BME280;6549;53.128;8.182;2024-01-15T11:05:03;99344.44;;;1.29;100.00
12969;BME280;6549;53.128;8.182;2024-01-15T11:08:05;99343.81;;;1.35;100.00
12969;BME280;6549;53.128;8.182;2024-01-15T11:11:06;99335.34;;;1.18;100.00
12969;BME280;6549;53.128;8.182;2024-01-15T11:14:07;99343.53;;;1.21;100.00
12969;BME280;6549;53.128;8.182;2024-01-15T11:17:08;99346.66;;;1.43;100.00
12969;BME280;6549;53.128;8.182;2024-01-15T11:20:09;99351.78;;;1.48;100.00
12969;BME280;6549;53.128;8.182;2024-01-15T11:23:43;99343.88;;;1.39;100.00
12969;BME280;6549;53.128;8.182;2024-01-15T11:26:46;99342.97;;;1.31;100.00
12969;BME280;6549;53.128;8.182;2024-01-15T11:30:03;99337.44;;;1.47;100.00
12969;BME280;6549;53.128;8.182;2024-01-15T11:33:04;99336.34;;;1.29;100.00
12969;BME280;6549;53.128;8.182;2024-01-15T11:36:07;99329.88;;;1.14;100.00
12969;BME280;6549;53.128;8.182;2024-01-15T11:42:27;99332.94;;;1.13;100.00
12969;BME280;6549;53.128;8.182;2024-01-15T11:45:28;99337.56;;;1.12;100.00
12969;BME280;6549;53.128;8.182;2024-01-15T11:48:37;99330.06;;;1.25;100.00
12969;BME280;6549;53.128;8.182;2024-01-15T11:51:42;99338.13;;;1.21;100.00
12969;BME280;6549;53.128;8.182;2024-01-15T11:57:54;99338.56;;;1.23;100.00
12969;BME280;6549;53.128;8.182;2024-01-15T12:00:55;99335.63;;;1.32;100.00
12969;BME280;6549;53.128;8.182;2024-01-15T12:03:56;99332.66;;;1.37;100.00
12969;BME280;6549;53.128;8.182;2024-01-15T12:06:58;99335.19;;;1.49;100.00
12969;BME280;6549;53.128;8.182;2024-01-15T12:09:58;99325.13;;;1.50;100.00
12969;BME280;6549;53.128;8.182;2024-01-15T12:13:20;99317.44;;;1.52;100.00
12969;BME280;6549;53.128;8.182;2024-01-15T12:16:19;99324.66;;;1.67;100.00
12969;BME280;6549;53.128;8.182;2024-01-15T12:19:20;99314.63;;;1.67;100.00
12969;BME280;6549;53.128;8.182;2024-01-15T12:22:20;99319.13;;;1.60;100.00
12969;BME280;6549;53.128;8.182;2024-01-15T12:25:21;99321.72;;;1.75;100.00
12969;BME280;6549;53.128;8.182;2024-01-15T12:28:22;99322.38;;;1.69;100.00
12969;BME280;6549;53.128;8.182;2024-01-15T12:31:23;99341.22;;;1.62;100.00
12969;BME280;6549;53.128;8.182;2024-01-15T12:34:23;99342.34;;;1.61;100.00
12969;BME280;6549;53.128;8.182;2024-01-15T12:37:23;99340.91;;;1.67;100.00
12969;BME280;6549;53.128;8.182;2024-01-15T12:40:24;99332.97;;;1.55;100.00
12969;BME280;6549;53.128;8.182;2024-01-15T12:43:24;99347.69;;;1.57;100.00
12969;BME280;6549;53.128;8.182;2024-01-15T12:46:25;99342.34;;;1.61;100.00
12969;BME280;6549;53.128;8.182;2024-01-15T12:49:25;99342.50;;;1.68;100.00
12969;BME280;6549;53.128;8.182;2024-01-15T12:52:29;99339.47;;;1.73;100.00
12969;BME280;6549;53.128;8.182;2024-01-15T12:55:30;99343.75;;;1.74;100.00
12969;BME280;6549;53.128;8.182;2024-01-15T12:58:30;99339.22;;;1.59;100.00
12969;BME280;6549;53.128;8.182;2024-01-15T13:01:30;99350.69;;;1.52;100.00
12969;BME280;6549;53.128;8.182;2024-01-15T13:04:30;99353.56;;;1.40;100.00
12969;BME280;6549;53.128;8.182;2024-01-15T13:07:31;99358.59;;;1.61;100.00
12969;BME280;6549;53.128;8.182;2024-01-15T13:10:32;99363.66;;;1.62;100.00
12969;BME280;6549;53.128;8.182;2024-01-15T13:13:32;99360.75;;;1.52;100.00
12969;BME280;6549;53.128;8.182;2024-01-15T13:16:34;99359.72;;;1.60;100.00
12969;BME280;6549;53.128;8.182;2024-01-15T13:19:34;99364.91;;;1.68;100.00
12969;BME280;6549;53.128;8.182;2024-01-15T13:22:35;99373.47;;;1.70;100.00
12969;BME280;6549;53.128;8.182;2024-01-15T13:25:36;99378.28;;;1.58;100.00
12969;BME280;6549;53.128;8.182;2024-01-15T13:28:38;99383.19;;;1.52;100.00
12969;BME280;6549;53.128;8.182;2024-01-15T13:31:38;99379.56;;;1.45;100.00
12969;BME280;6549;53.128;8.182;2024-01-15T13:34:38;99383.91;;;1.49;100.00
12969;BME280;6549;53.128;8.182;2024-01-15T13:37:39;99391.25;;;1.29;100.00
12969;BME280;6549;53.128;8.182;2024-01-15T13:40:41;99387.69;;;1.25;100.00
12969;BME280;6549;53.128;8.182;2024-01-15T13:43:42;99395.25;;;1.35;100.00
12969;BME280;6549;53.128;8.182;2024-01-15T13:46:42;99398.34;;;1.38;100.00
12969;BME280;6549;53.128;8.182;2024-01-15T13:49:42;99405.50;;;1.46;100.00
12969;BME280;6549;53.128;8.182;2024-01-15T13:52:43;99390.75;;;1.43;100.00
12969;BME280;6549;53.128;8.182;2024-01-15T13:55:43;99397.03;;;1.28;100.00
12969;BME280;6549;53.128;8.182;2024-01-15T13:58:44;99394.91;;;1.37;100.00
12969;BME280;6549;53.128;8.182;2024-01-15T14:01:44;99389.38;;;1.33;100.00
12969;BME280;6549;53.128;8.182;2024-01-15T14:04:44;99389.94;;;1.43;100.00
12969;BME280;6549;53.128;8.182;2024-01-15T14:07:45;99406.13;;;1.39;100.00
12969;BME280;6549;53.128;8.182;2024-01-15T14:10:45;99424.66;;;1.37;100.00
12969;BME280;6549;53.128;8.182;2024-01-15T14:13:45;99424.50;;;1.30;100.00
12969;BME280;6549;53.128;8.182;2024-01-15T14:16:46;99431.00;;;1.45;100.00
12969;BME280;6549;53.128;8.182;2024-01-15T14:19:46;99437.31;;;1.52;100.00
12969;BME280;6549;53.128;8.182;2024-01-15T14:22:47;99435.84;;;1.55;100.00
12969;BME280;6549;53.128;8.182;2024-01-15T14:25:48;99442.47;;;1.57;100.00
12969;BME280;6549;53.128;8.182;2024-01-15T14:28:48;99445.09;;;1.54;100.00
12969;BME280;6549;53.128;8.182;2024-01-15T14:31:49;99444.66;;;1.52;100.00
12969;BME280;6549;53.128;8.182;2024-01-15T14:34:49;99462.72;;;1.63;100.00
12969;BME280;6549;53.128;8.182;2024-01-15T14:37:49;99464.63;;;1.63;100.00
12969;BME280;6549;53.128;8.182;2024-01-15T14:40:50;99465.13;;;1.49;100.00
12969;BME280;6549;53.128;8.182;2024-01-15T14:43:50;99470.47;;;1.46;100.00
12969;BME280;6549;53.128;8.182;2024-01-15T14:46:50;99473.59;;;1.48;100.00
12969;BME280;6549;53.128;8.182;2024-01-15T14:49:51;99484.13;;;1.53;100.00
12969;BME280;6549;53.128;8.182;2024-01-15T14:52:51;99484.41;;;1.48;100.00
12969;BME280;6549;53.128;8.182;2024-01-15T14:55:52;99488.81;;;1.56;100.00
12969;BME280;6549;53.128;8.182;2024-01-15T14:58:54;99493.53;;;1.40;100.00
12969;BME280;6549;53.128;8.182;2024-01-15T15:01:54;99499.94;;;1.51;100.00
12969;BME280;6549;53.128;8.182;2024-01-15T15:04:55;99502.56;;;1.47;100.00
12969;BME280;6549;53.128;8.182;2024-01-15T15:07:58;99510.69;;;1.47;100.00
12969;BME280;6549;53.128;8.182;2024-01-15T15:10:58;99514.06;;;1.41;100.00
12969;BME280;6549;53.128;8.182;2024-01-15T15:13:58;99512.91;;;1.42;100.00
12969;BME280;6549;53.128;8.182;2024-01-15T15:17:00;99524.16;;;1.44;100.00
12969;BME280;6549;53.128;8.182;2024-01-15T15:20:00;99516.50;;;1.30;100.00
12969;BME280;6549;53.128;8.182;2024-01-15T15:23:02;99516.03;;;1.44;100.00
12969;BME280;6549;53.128;8.182;2024-01-15T15:26:05;99527.00;;;1.31;100.00
12969;BME280;6549;53.128;8.182;2024-01-15T15:29:06;99528.13;;;1.30;100.00
12969;BME280;6549;53.128;8.182;2024-01-15T15:32:06;99529.25;;;1.29;100.00
12969;BME280;6549;53.128;8.182;2024-01-15T15:35:07;99538.09;;;1.26;100.00
12969;BME280;6549;53.128;8.182;2024-01-15T15:38:07;99540.53;;;1.31;100.00
12969;BME280;6549;53.128;8.182;2024-01-15T15:41:07;99554.75;;;1.28;100.00
12969;BME280;6549;53.128;8.182;2024-01-15T15:44:08;99549.34;;;1.28;100.00
12969;BME280;6549;53.128;8.182;2024-01-15T15:47:09;99553.19;;;1.27;100.00
12969;BME280;6549;53.128;8.182;2024-01-15T15:50:10;99554.47;;;1.33;100.00
12969;BME280;6549;53.128;8.182;2024-01-15T15:53:11;99551.44;;;1.35;100.00
12969;BME280;6549;53.128;8.182;2024-01-15T15:56:11;99561.47;;;1.34;100.00
12969;BME280;6549;53.128;8.182;2024-01-15T15:59:11;99559.75;;;1.26;100.00
12969;BME280;6549;53.128;8.182;2024-01-15T16:02:13;99569.34;;;1.24;100.00
12969;BME280;6549;53.128;8.182;2024-01-15T16:05:14;99570.22;;;1.28;100.00
12969;BME280;6549;53.128;8.182;2024-01-15T16:08:14;99580.00;;;1.32;100.00
12969;BME280;6549;53.128;8.182;2024-01-15T16:11:14;99581.38;;;1.26;100.00
12969;BME280;6549;53.128;8.182;2024-01-15T16:14:15;99578.16;;;1.21;100.00
12969;BME280;6549;53.128;8.182;2024-01-15T16:17:16;99589.16;;;1.28;100.00
12969;BME280;6549;53.128;8.182;2024-01-15T16:20:17;99594.84;;;1.23;100.00